Thursday, September 20, 2018, 12:39 PM GMT
Back to Local

CYYY, Mont Joli, Que.

Location: , , Canada Lat: 48.6
Local Time: 12:39 PM GMT (12:39 GMT) Lon: -68.217
Time Zone: GMT Elev: 157 ft

Show me the last for .
Show Decoded

2018-09-20 12:07 METAR CYYY 201207Z 15008KT 15SM -RA SCT042 BKN057 OVC100 08/05 A3028 RMK
                 SC3SC4AC1 SLP256 =
2018-09-20 12:00 METAR CYYY 201200Z 17006KT 15SM SCT042 BKN057 OVC100 08/05 A3028 RMK SC3SC4AC1
                 SLP257 =
2018-09-20 11:00 METAR CYYY 201100Z 18004KT 130V200 30SM FEW043 BKN061 OVC100 08/05 A3026 RMK
                 SC2SC5AC1 SLP251 =
2018-09-20 10:00 METAR CYYY 201000Z 14004KT 110V230 30SM OVC061 08/05 A3025 RMK SC8 SLP248 =
2018-09-20 09:00 METAR CYYY 200900Z 15009KT 30SM BKN056 08/05 A3023 RMK SC7 SLP241 =
2018-09-20 08:00 METAR CYYY 200800Z 14004KT 30SM SCT039 06/05 A3024 RMK SC4 SLP242 =
2018-09-20 07:00 METAR CYYY 200700Z 00000KT 30SM BKN040 06/05 A3025 RMK SC7 SLP248 =
2018-09-20 06:00 METAR CYYY 200600Z 07003KT 30SM FEW037 SCT200 05/04 A3025 RMK SC1CI2 SLP247 =
2018-09-20 05:00 METAR CYYY 200500Z 03003KT 15SM OVC057 06/05 A3025 RMK SC8 SLP246 =
2018-09-20 04:00 METAR CYYY 200400Z 00000KT 15SM OVC039 06/06 A3025 RMK SC8 SLP246 =
2018-09-20 03:00 METAR CYYY 200300Z 06002KT 15SM OVC039 06/05 A3024 RMK SC8 SLP243 =
2018-09-20 02:00 METAR CYYY 200200Z 09003KT 15SM BKN044 06/05 A3022 RMK SC7 SLP238 =
2018-09-20 01:55 METAR CYYY 200155Z 10004KT 15SM OVC045 06/05 A3022 RMK SC8 SLP238 =
2018-09-20 01:00 METAR CYYY 200100Z 06004KT 15SM -DZ OVC033 07/06 A3022 RMK SC8 SLP238 =
2018-09-20 00:08 METAR CYYY 200008Z 07003KT 15SM -DZ OVC024 06/06 A3022 RMK SC8 SLP238 =
2018-09-20 00:00 METAR CYYY 200000Z 09004KT 15SM OVC025 06/05 A3022 RMK SC8 SLP237 =
2018-09-19 23:00 METAR CYYY 192300Z 07009KT 15SM OVC036 06/05 A3021 RMK SC8 SLP233 =
2018-09-19 22:00 METAR CYYY 192200Z 06009KT 10SM SCT020 OVC034 07/05 A3020 RMK SC3SC5 SLP231 =
2018-09-19 21:00 METAR CYYY 192100Z 06013KT 15SM FEW015 BKN030 OVC047 08/05 A3019 RMK SC1SC6SC1
                 SLP226 =
2018-09-19 20:34 METAR CYYY 192034Z 06012KT 15SM FEW015 BKN030 OVC081 08/05 A3019 RMK SC1SC6AC1
                 SLP226 =
2018-09-19 20:00 METAR CYYY 192000Z 05011KT 6SM BR BKN015 OVC033 07/05 A3018 RMK SC5SC3 SLP225 =
2018-09-19 19:00 METAR CYYY 191900Z 05012G17KT 10SM BKN018 OVC042 08/05 A3018 RMK SC5SC3 VIS LWR
                 SE SLP222 =
2018-09-19 18:24 METAR CYYY 191824Z 05010G16KT 3SM BR BKN018 OVC042 08/05 A3017 RMK SC5SC3 SLP221
                 =
2018-09-19 18:12 METAR CYYY 191812Z 06012G17KT 2 1/2SM BR BKN021 OVC045 08/05 A3017 RMK SC6SC2
                 SLP221 =
2018-09-19 18:00 METAR CYYY 191800Z 05011KT 10SM BKN024 OVC045 08/06 A3017 RMK SC7SC1 SLP221 =
2018-09-19 17:24 METAR CYYY 191724Z 06011KT 10SM BKN024 OVC045 08/05 A3017 RMK SC6SC2 VIS LWR SE
                 SLP219 =
2018-09-19 17:00 METAR CYYY 191700Z 04012KT 10SM -RA BKN021 OVC045 08/05 A3016 RMK SC5SC3 SLP218
                 =
2018-09-19 16:19 METAR CYYY 191619Z 06010G16KT 6SM -RA BR BKN024 OVC042 09/06 A3015 RMK SC5SC3
                 SLP215 =
2018-09-19 16:00 METAR CYYY 191600Z 05012KT 15SM BKN023 BKN042 OVC057 09/06 A3015 RMK SC5SC2SC1
                 SLP215 =
2018-09-19 15:00 METAR CYYY 191500Z 06010KT 10SM FEW016 BKN037 OVC048 08/06 A3015 RMK SC2SC3SC3
                 SLP215 =
2018-09-19 14:00 METAR CYYY 191400Z 08012G17KT 15SM BKN041 OVC050 08/05 A3015 RMK SC6SC2 SLP215 =
2018-09-19 13:00 METAR CYYY 191300Z 06010KT 15SM BKN040 OVC050 07/04 A3015 RMK SC6SC2 SLP212 =

Support USWX by starting your Amazon purchase here.